Time;durP1;ratioP1;P1;durP2;ratioP2;P2;SDS_P1;SDS_P2;PMS_P1;PMS_P2;Temp;Humidity;BMP_temperature;BMP_pressure;BME280_temperature;BME280_humidity;BME280_pressure;Samples;Min_cycle;Max_cycle;Signal;HPM_P1;HPM_P2
2022/07/08 00:02:06;;;;;;;1.17;1.08;;;17.70;99.90;;;;;;5071842;28;20223;-36
2022/07/08 00:04:31;;;;;;;1.77;1.00;;;17.70;99.90;;;;;;5072249;28;20197;-36
2022/07/08 00:06:58;;;;;;;1.23;0.98;;;17.70;99.90;;;;;;5037350;28;20294;-36
2022/07/08 00:09:26;;;;;;;1.70;1.02;;;17.70;99.90;;;;;;5038010;28;20216;-36
2022/07/08 00:11:53;;;;;;;1.70;1.08;;;17.70;99.90;;;;;;5054945;28;20200;-36
2022/07/08 00:14:19;;;;;;;1.20;1.00;;;17.70;99.90;;;;;;5054559;28;20250;-36
2022/07/08 00:16:45;;;;;;;1.40;1.30;;;17.60;99.90;;;;;;5037671;28;20189;-36
2022/07/08 00:19:14;;;;;;;1.73;1.30;;;17.60;99.90;;;;;;5037086;28;20184;-36
2022/07/08 00:21:44;;;;;;;1.20;1.10;;;17.60;99.90;;;;;;5072785;28;20196;-36
2022/07/08 00:24:11;;;;;;;1.35;1.20;;;17.60;99.90;;;;;;5053785;28;20237;-36
2022/07/08 00:26:38;;;;;;;2.13;0.98;;;17.60;99.90;;;;;;5071990;28;20255;-36
2022/07/08 00:29:04;;;;;;;1.33;1.23;;;17.60;99.90;;;;;;5037798;28;20675;-36
2022/07/08 00:31:30;;;;;;;1.30;1.10;;;17.60;99.90;;;;;;5054185;28;20197;-36
2022/07/08 00:33:56;;;;;;;1.83;1.10;;;17.50;99.90;;;;;;5037297;28;20343;-36
2022/07/08 00:36:22;;;;;;;1.40;1.30;;;17.50;99.90;;;;;;5054560;28;20189;-36
2022/07/08 00:38:49;;;;;;;1.40;1.13;;;17.50;99.90;;;;;;5056280;28;20191;-37
2022/07/08 00:41:15;;;;;;;3.47;1.60;;;17.40;99.90;;;;;;5065858;28;20244;-37
2022/07/08 00:43:43;;;;;;;4.55;1.70;;;17.20;99.90;;;;;;5058026;28;20203;-37
2022/07/08 00:46:10;;;;;;;6.85;1.98;;;17.20;99.90;;;;;;5036835;28;20208;-36
2022/07/08 00:48:36;;;;;;;3.77;1.90;;;17.00;99.90;;;;;;5053336;28;20188;-36
2022/07/08 00:51:05;;;;;;;4.77;2.07;;;16.80;99.90;;;;;;5053843;28;20187;-37
2022/07/08 00:53:33;;;;;;;5.17;2.00;;;16.70;99.90;;;;;;5036704;28;20185;-36
2022/07/08 00:55:59;;;;;;;5.47;1.87;;;16.60;99.90;;;;;;5036684;28;20181;-35
2022/07/08 00:58:26;;;;;;;6.23;1.97;;;16.40;99.90;;;;;;5053074;28;20178;-35
2022/07/08 01:00:55;;;;;;;5.90;2.10;;;16.30;99.90;;;;;;5036560;28;20177;-36
2022/07/08 01:03:21;;;;;;;6.63;2.47;;;16.20;99.90;;;;;;5070988;28;20231;-36
2022/07/08 01:05:46;;;;;;;4.50;1.97;;;16.20;99.90;;;;;;5053128;28;20204;-36
2022/07/08 01:08:13;;;;;;;6.63;2.20;;;16.10;99.90;;;;;;5036577;28;20197;-36
2022/07/08 01:10:39;;;;;;;8.13;2.03;;;16.00;99.90;;;;;;5052853;28;20173;-36
2022/07/08 01:13:06;;;;;;;8.27;2.17;;;15.90;99.90;;;;;;5036002;28;20190;-36
2022/07/08 01:15:33;;;;;;;9.93;2.90;;;15.90;99.90;;;;;;5036149;28;20181;-36
2022/07/08 01:17:59;;;;;;;6.27;2.70;;;15.80;99.90;;;;;;5071162;28;20231;-36
2022/07/08 01:20:25;;;;;;;6.90;2.40;;;15.70;99.90;;;;;;5053069;28;20177;-37
2022/07/08 01:22:52;;;;;;;7.03;2.40;;;15.70;99.90;;;;;;5036390;28;20193;-36
2022/07/08 01:25:18;;;;;;;8.47;2.60;;;15.70;99.90;;;;;;5052755;28;20231;-37
2022/07/08 01:27:44;;;;;;;7.97;2.93;;;15.60;99.90;;;;;;5052648;28;20200;-36
2022/07/08 01:30:10;;;;;;;7.43;2.80;;;15.60;99.90;;;;;;5035847;28;20204;-35
2022/07/08 01:32:41;;;;;;;8.03;2.90;;;15.50;99.90;;;;;;5035956;28;20201;-35
2022/07/08 01:35:08;;;;;;;6.90;2.93;;;15.50;99.90;;;;;;5052612;28;20230;-36
2022/07/08 01:37:34;;;;;;;8.63;2.70;;;15.40;99.90;;;;;;5070473;28;20192;-36
2022/07/08 01:40:00;;;;;;;7.23;2.70;;;15.30;99.90;;;;;;5036626;28;20546;-36
2022/07/08 01:42:25;;;;;;;5.87;3.00;;;15.30;99.90;;;;;;5052833;28;20243;-36
2022/07/08 01:44:52;;;;;;;4.83;2.67;;;15.30;99.90;;;;;;5070359;28;20209;-36
2022/07/08 01:47:17;;;;;;;7.70;2.50;;;15.40;99.90;;;;;;5052877;28;20307;-36
2022/07/08 01:49:43;;;;;;;6.87;2.87;;;15.30;99.90;;;;;;5052545;28;20269;-36
2022/07/08 01:52:09;;;;;;;6.57;3.60;;;15.30;99.90;;;;;;5052759;28;20213;-36
2022/07/08 01:54:35;;;;;;;5.10;2.70;;;15.30;99.90;;;;;;5052419;28;20207;-36
2022/07/08 01:57:18;;;;;;;8.30;2.80;;;15.30;99.90;;;;;;5052901;28;20173;-36
2022/07/08 01:59:49;;;;;;;6.47;2.70;;;15.20;99.90;;;;;;5036034;28;20189;-35
2022/07/08 02:02:19;;;;;;;8.27;2.93;;;15.20;99.90;;;;;;5036346;28;20201;-36
2022/07/08 02:04:45;;;;;;;4.77;2.83;;;15.20;99.90;;;;;;5035695;28;20208;-36
2022/07/08 02:07:11;;;;;;;4.87;2.37;;;15.10;99.90;;;;;;5052371;28;20225;-36
2022/07/08 02:09:38;;;;;;;6.47;2.60;;;15.10;99.90;;;;;;5035239;28;20213;-37
2022/07/08 02:12:20;;;;;;;5.97;2.60;;;15.10;99.90;;;;;;5052726;28;20280;-36
2022/07/08 02:15:01;;;;;;;6.00;2.40;;;15.00;99.90;;;;;;5052324;28;20181;-37
2022/07/08 02:17:32;;;;;;;6.60;3.20;;;15.10;99.90;;;;;;5036059;28;20184;-36
2022/07/08 02:19:58;;;;;;;6.60;2.80;;;15.10;99.90;;;;;;5035729;28;20189;-36
2022/07/08 02:22:24;;;;;;;5.70;2.47;;;15.10;99.90;;;;;;5052071;28;20204;-36
2022/07/08 02:24:51;;;;;;;7.50;3.07;;;15.10;99.90;;;;;;5053373;28;20184;-34
2022/07/08 02:27:17;;;;;;;6.23;2.60;;;15.10;99.90;;;;;;5056085;28;20209;-36
2022/07/08 02:29:43;;;;;;;5.17;2.50;;;15.20;99.90;;;;;;5039172;28;20623;-36
2022/07/08 02:32:09;;;;;;;8.03;2.93;;;15.20;99.90;;;;;;5056130;28;20204;-36
2022/07/08 02:34:35;;;;;;;8.17;2.77;;;15.20;99.90;;;;;;5055493;28;20182;-35
2022/07/08 02:37:01;;;;;;;6.90;3.03;;;15.20;99.90;;;;;;5074027;28;20193;-34
2022/07/08 02:39:27;;;;;;;6.77;2.83;;;15.20;99.90;;;;;;5056035;28;20181;-35
2022/07/08 02:41:53;;;;;;;5.17;2.70;;;15.10;99.90;;;;;;5039561;28;20209;-34
2022/07/08 02:44:19;;;;;;;6.20;2.80;;;15.10;99.90;;;;;;5038921;28;20192;-35
2022/07/08 02:46:45;;;;;;;6.77;2.87;;;15.10;99.90;;;;;;5034530;28;20286;-35
2022/07/08 02:49:12;;;;;;;5.30;2.50;;;15.00;99.90;;;;;;5036028;28;20186;-35
2022/07/08 02:51:38;;;;;;;6.37;2.57;;;14.90;99.90;;;;;;5063308;28;20208;-34
2022/07/08 02:54:05;;;;;;;7.10;2.77;;;14.90;99.90;;;;;;5072829;28;20204;-35
2022/07/08 02:56:32;;;;;;;5.33;2.63;;;14.80;99.90;;;;;;5055568;28;20177;-34
2022/07/08 02:58:58;;;;;;;6.00;2.80;;;14.80;99.90;;;;;;5055891;28;20181;-34
2022/07/08 03:01:24;;;;;;;3.60;2.33;;;14.80;99.90;;;;;;5055333;28;20195;-35
2022/07/08 03:03:50;;;;;;;8.60;2.73;;;14.80;99.90;;;;;;5055476;28;20177;-34
2022/07/08 03:06:16;;;;;;;11.27;3.20;;;14.70;99.90;;;;;;5038863;28;20255;-34
2022/07/08 03:08:42;;;;;;;7.90;3.37;;;14.70;99.90;;;;;;5055181;28;20166;-34
2022/07/08 03:11:08;;;;;;;6.43;2.80;;;14.60;99.90;;;;;;5038534;28;20177;-34
2022/07/08 03:13:37;;;;;;;4.13;3.00;;;14.60;99.90;;;;;;5038181;28;20181;-34
2022/07/08 03:16:04;;;;;;;6.77;2.87;;;14.40;99.90;;;;;;5038373;28;20505;-34
2022/07/08 03:18:35;;;;;;;8.73;3.03;;;14.40;99.90;;;;;;5055073;28;20258;-35
2022/07/08 03:21:03;;;;;;;4.67;3.10;;;14.30;99.90;;;;;;5054602;28;20647;-34
2022/07/08 03:23:31;;;;;;;5.90;2.77;;;14.20;99.90;;;;;;5055432;28;20220;-35
2022/07/08 03:25:57;;;;;;;7.40;3.00;;;14.10;99.90;;;;;;5038197;28;20208;-34
2022/07/08 03:28:23;;;;;;;9.47;3.07;;;14.00;99.90;;;;;;5055356;28;20177;-34
2022/07/08 03:30:48;;;;;;;7.70;3.30;;;14.00;99.90;;;;;;5072728;28;20173;-36
2022/07/08 03:33:14;;;;;;;5.00;2.40;;;13.90;99.90;;;;;;5054405;28;20208;-34
2022/07/08 03:35:40;;;;;;;5.80;3.00;;;13.80;99.90;;;;;;5037781;28;20186;-34
2022/07/08 03:38:06;;;;;;;6.10;3.07;;;13.70;99.90;;;;;;5054507;28;20184;-34
2022/07/08 03:43:18;;;;;;;5.00;2.90;;;13.60;99.90;;;;;;4994706;28;20259;-34
2022/07/08 03:45:43;;;;;;;7.97;3.33;;;13.70;99.90;;;;;;5034405;28;20267;-34
2022/07/08 03:48:09;;;;;;;6.47;2.80;;;13.70;99.90;;;;;;5052612;28;20188;-35
2022/07/08 03:50:35;;;;;;;6.03;2.83;;;13.70;99.90;;;;;;5054868;28;20198;-34
2022/07/08 03:53:01;;;;;;;7.57;2.60;;;13.70;99.90;;;;;;5071927;28;20262;-34
2022/07/08 03:55:27;;;;;;;8.70;3.40;;;13.70;99.90;;;;;;5054432;28;20184;-34
2022/07/08 03:57:53;;;;;;;6.13;2.80;;;13.70;99.90;;;;;;5037604;28;20173;-34
2022/07/08 04:00:19;;;;;;;4.27;2.90;;;13.70;99.90;;;;;;5036967;28;20213;-36
2022/07/08 04:02:46;;;;;;;6.50;2.83;;;13.70;99.90;;;;;;5036106;28;20216;-35
2022/07/08 04:05:12;;;;;;;7.63;3.00;;;13.60;99.90;;;;;;5034770;28;20242;-34
2022/07/08 04:07:38;;;;;;;5.80;3.10;;;13.60;99.90;;;;;;5053147;28;20207;-34
2022/07/08 04:10:04;;;;;;;6.23;2.80;;;13.60;99.90;;;;;;5054087;28;20185;-34
2022/07/08 04:12:30;;;;;;;6.03;2.70;;;13.60;99.90;;;;;;5052783;28;20208;-35
2022/07/08 04:14:56;;;;;;;5.27;3.13;;;13.70;99.90;;;;;;5036717;28;20171;-34
2022/07/08 04:17:22;;;;;;;6.87;2.67;;;13.70;99.90;;;;;;5070032;28;20187;-35
2022/07/08 04:19:48;;;;;;;5.00;2.97;;;13.80;99.90;;;;;;5053465;28;20188;-35
2022/07/08 04:22:14;;;;;;;7.57;2.87;;;13.80;99.90;;;;;;5053269;28;20200;-35
2022/07/08 04:24:42;;;;;;;6.33;3.00;;;13.80;99.90;;;;;;5053392;28;20185;-35
2022/07/08 04:27:17;;;;;;;6.33;2.97;;;13.80;99.90;;;;;;5038142;28;20216;-35
2022/07/08 04:29:43;;;;;;;7.57;3.03;;;13.80;99.90;;;;;;5036755;28;20240;-34
2022/07/08 04:32:09;;;;;;;7.20;3.00;;;13.80;99.90;;;;;;5035958;28;20228;-35
2022/07/08 04:34:34;;;;;;;6.67;3.20;;;13.70;99.90;;;;;;5036368;28;20267;-34
2022/07/08 04:37:00;;;;;;;8.27;3.00;;;13.80;99.90;;;;;;5036219;28;20184;-34
2022/07/08 04:39:26;;;;;;;4.67;2.97;;;13.80;99.90;;;;;;5053044;28;20278;-34
2022/07/08 04:41:52;;;;;;;8.37;3.20;;;13.80;99.90;;;;;;5071237;28;20200;-34
2022/07/08 04:44:18;;;;;;;6.17;2.90;;;13.90;99.90;;;;;;5036987;28;20180;-34
2022/07/08 04:46:43;;;;;;;6.40;3.30;;;13.90;99.90;;;;;;5052759;28;20216;-34
2022/07/08 04:49:10;;;;;;;7.93;3.10;;;13.90;99.90;;;;;;5071127;28;20183;-34
2022/07/08 04:51:36;;;;;;;7.60;3.17;;;13.90;99.90;;;;;;5070938;28;20199;-34
2022/07/08 04:54:04;;;;;;;7.93;3.23;;;14.00;99.90;;;;;;5055168;28;20756;-36
2022/07/08 04:56:30;;;;;;;7.50;3.30;;;14.00;99.90;;;;;;5036139;28;20215;-35
2022/07/08 04:58:55;;;;;;;6.87;3.27;;;14.10;99.90;;;;;;5053521;28;20205;-36
2022/07/08 05:01:21;;;;;;;7.63;2.73;;;14.20;99.90;;;;;;5036214;28;20191;-36
2022/07/08 05:03:47;;;;;;;6.10;2.63;;;14.20;99.90;;;;;;5052937;28;20181;-36
2022/07/08 05:06:13;;;;;;;6.07;3.00;;;14.30;99.90;;;;;;5037114;28;20197;-36
2022/07/08 05:08:39;;;;;;;9.67;3.20;;;14.40;99.90;;;;;;5036256;28;20181;-36
2022/07/08 05:11:05;;;;;;;4.87;2.50;;;14.40;99.90;;;;;;5033735;28;20328;-36
2022/07/08 05:13:32;;;;;;;6.93;3.17;;;14.40;99.90;;;;;;5046886;28;20191;-36
2022/07/08 05:15:58;;;;;;;9.80;3.30;;;14.40;99.90;;;;;;5057283;28;20180;-38
2022/07/08 05:18:24;;;;;;;6.90;3.20;;;14.40;99.90;;;;;;5072640;28;20271;-36
2022/07/08 05:20:50;;;;;;;3.13;2.70;;;14.50;99.90;;;;;;5052829;28;20307;-37
2022/07/08 05:23:16;;;;;;;5.53;2.60;;;14.50;99.90;;;;;;5036418;28;20204;-37
2022/07/08 05:25:41;;;;;;;8.73;2.67;;;14.50;99.90;;;;;;5034887;28;20224;-37
2022/07/08 05:28:07;;;;;;;9.43;3.00;;;14.60;99.90;;;;;;5070747;28;20271;-35
2022/07/08 05:30:33;;;;;;;5.30;2.77;;;14.60;99.90;;;;;;5071157;28;20215;-36
2022/07/08 05:33:00;;;;;;;7.33;2.87;;;14.60;99.90;;;;;;5036133;28;20246;-36
2022/07/08 05:35:25;;;;;;;6.73;3.10;;;14.60;99.90;;;;;;5035947;28;20186;-35
2022/07/08 05:37:51;;;;;;;7.87;2.70;;;14.70;99.90;;;;;;5036914;28;20180;-37
2022/07/08 05:40:17;;;;;;;7.73;2.57;;;14.80;99.90;;;;;;5043184;28;20295;-37
2022/07/08 05:42:43;;;;;;;8.40;2.80;;;15.00;99.90;;;;;;5056478;28;20193;-35
2022/07/08 05:45:09;;;;;;;4.80;2.37;;;15.20;99.90;;;;;;5051553;28;20180;-37
2022/07/08 05:47:36;;;;;;;5.63;2.63;;;15.30;99.90;;;;;;5070636;28;20197;-36
2022/07/08 05:50:02;;;;;;;7.30;2.37;;;15.50;99.90;;;;;;5070593;28;20173;-36
2022/07/08 05:52:28;;;;;;;5.67;2.23;;;15.60;99.90;;;;;;5036454;28;20304;-35
2022/07/08 05:54:54;;;;;;;6.77;2.40;;;15.80;99.90;;;;;;5034796;28;20280;-35
2022/07/08 05:57:20;;;;;;;12.20;2.50;;;15.70;99.90;;;;;;5070210;28;20203;-36
2022/07/08 05:59:46;;;;;;;7.43;2.70;;;15.80;99.90;;;;;;5038083;28;20253;-34
2022/07/08 06:02:12;;;;;;;7.30;2.60;;;15.80;99.90;;;;;;5057043;28;20733;-34
2022/07/08 06:04:38;;;;;;;6.83;2.60;;;15.70;99.90;;;;;;5055538;28;20191;-35
2022/07/08 06:07:04;;;;;;;7.87;2.60;;;15.80;99.90;;;;;;5056044;28;20227;-34
2022/07/08 06:09:30;;;;;;;6.60;2.37;;;15.90;99.90;;;;;;5056345;28;20181;-35
2022/07/08 06:11:56;;;;;;;3.83;1.90;;;15.90;99.90;;;;;;5074435;28;20204;-34
2022/07/08 06:14:22;;;;;;;5.80;2.20;;;16.10;99.90;;;;;;5056917;28;20173;-35
2022/07/08 06:16:48;;;;;;;7.17;2.50;;;16.30;99.90;;;;;;5057293;28;20177;-34
2022/07/08 06:19:17;;;;;;;5.77;2.60;;;16.30;99.90;;;;;;5057448;28;20247;-34
2022/07/08 06:21:43;;;;;;;5.57;2.00;;;16.30;99.90;;;;;;5039135;28;20563;-35
2022/07/08 06:24:09;;;;;;;5.60;2.20;;;16.50;99.90;;;;;;5039389;28;20201;-34
2022/07/08 06:26:36;;;;;;;4.77;2.20;;;16.70;99.90;;;;;;5056134;28;20209;-34
2022/07/08 06:29:03;;;;;;;4.37;1.80;;;16.90;99.90;;;;;;5056580;28;20188;-34
2022/07/08 06:31:29;;;;;;;8.77;2.67;;;17.10;99.90;;;;;;5055970;28;20241;-34
2022/07/08 06:33:58;;;;;;;7.73;2.37;;;17.30;99.90;;;;;;5055830;28;20238;-34
2022/07/08 06:36:25;;;;;;;7.33;2.00;;;17.40;99.90;;;;;;5055309;28;20189;-34
2022/07/08 06:38:52;;;;;;;5.10;2.00;;;17.30;99.90;;;;;;5074282;28;20177;-34
2022/07/08 06:41:18;;;;;;;6.70;2.15;;;17.40;99.90;;;;;;5074153;28;20185;-35
2022/07/08 06:43:45;;;;;;;4.22;1.95;;;17.70;99.90;;;;;;5055869;28;20181;-36
2022/07/08 06:46:11;;;;;;;8.23;2.30;;;17.70;99.90;;;;;;5055862;28;20196;-35
2022/07/08 06:48:37;;;;;;;4.13;1.83;;;17.80;99.90;;;;;;5055326;28;20184;-34
2022/07/08 06:51:02;;;;;;;3.55;1.70;;;18.00;99.90;;;;;;5055188;28;20173;-35
2022/07/08 06:54:34;;;;;;;5.60;1.75;;;18.00;99.90;;;;;;5038943;28;20205;-35
2022/07/08 06:56:14;;;;;;;9.38;2.20;;;17.90;99.90;;;;;;5073512;28;20192;-34
2022/07/08 06:58:40;;;;;;;5.05;1.88;;;17.60;99.90;;;;;;5055552;28;20173;-37
2022/07/08 07:01:06;;;;;;;3.03;1.60;;;17.50;99.90;;;;;;5038791;28;20187;-35
2022/07/08 07:03:32;;;;;;;4.70;1.67;;;17.50;99.90;;;;;;5055309;28;20200;-35
2022/07/08 07:05:58;;;;;;;5.43;1.70;;;17.50;99.90;;;;;;5038219;28;20209;-35
2022/07/08 07:08:24;;;;;;;4.50;1.75;;;17.60;99.90;;;;;;5038999;28;20184;-35
2022/07/08 07:10:49;;;;;;;5.43;2.08;;;17.70;99.90;;;;;;5038216;28;20192;-35
2022/07/08 07:13:15;;;;;;;3.47;1.77;;;17.80;99.90;;;;;;5038694;28;20197;-34
2022/07/08 07:15:41;;;;;;;7.20;2.00;;;17.90;99.90;;;;;;5038506;28;20187;-36
2022/07/08 07:18:08;;;;;;;4.20;1.75;;;18.00;99.90;;;;;;5038813;28;20243;-36
2022/07/08 07:20:34;;;;;;;5.78;1.80;;;18.10;99.90;;;;;;5038726;28;20185;-34
2022/07/08 07:23:00;;;;;;;4.82;1.67;;;18.20;99.90;;;;;;5038242;28;20197;-35
2022/07/08 07:25:26;;;;;;;6.50;2.08;;;18.20;99.90;;;;;;5073520;28;20188;-34
2022/07/08 07:27:52;;;;;;;4.80;1.70;;;18.10;99.90;;;;;;5039638;28;20282;-34
2022/07/08 07:30:21;;;;;;;5.07;1.70;;;17.70;99.90;;;;;;5037589;28;20169;-34
2022/07/08 07:32:47;;;;;;;3.70;1.83;;;17.70;99.90;;;;;;5054552;28;20274;-34
2022/07/08 07:35:13;;;;;;;6.60;2.10;;;17.70;99.90;;;;;;5051967;28;20200;-35
2022/07/08 07:37:39;;;;;;;4.60;1.77;;;17.70;99.90;;;;;;5054134;28;20668;-35
2022/07/08 07:40:05;;;;;;;4.38;1.70;;;17.70;99.90;;;;;;5054767;28;20184;-34
2022/07/08 07:42:31;;;;;;;4.30;1.77;;;17.70;99.90;;;;;;5037916;28;20223;-34
2022/07/08 07:44:57;;;;;;;5.03;1.98;;;17.70;99.90;;;;;;5054553;28;20188;-35
2022/07/08 07:47:23;;;;;;;3.47;2.08;;;18.00;99.90;;;;;;5037548;28;20205;-35
2022/07/08 07:49:50;;;;;;;4.43;1.77;;;18.40;99.90;;;;;;5038085;28;20192;-34
2022/07/08 07:52:16;;;;;;;6.03;1.77;;;18.70;99.90;;;;;;5054209;28;20205;-35
2022/07/08 07:54:42;;;;;;;4.85;1.50;;;18.90;99.90;;;;;;5054749;28;20185;-34
2022/07/08 07:57:07;;;;;;;4.35;2.10;;;19.00;99.90;;;;;;5054124;28;20177;-35
2022/07/08 07:59:33;;;;;;;5.97;1.67;;;19.20;99.90;;;;;;5072283;28;20170;-35
2022/07/08 08:01:59;;;;;;;7.07;1.83;;;18.90;99.90;;;;;;5054316;28;20674;-35
2022/07/08 08:04:25;;;;;;;4.18;1.63;;;19.00;99.90;;;;;;5053708;28;20197;-35
2022/07/08 08:06:51;;;;;;;4.57;1.58;;;19.00;99.90;;;;;;5071966;28;20201;-35
2022/07/08 08:09:17;;;;;;;6.95;1.83;;;18.90;99.90;;;;;;5053984;28;20303;-36
2022/07/08 08:11:43;;;;;;;4.30;1.90;;;18.90;99.90;;;;;;5054021;28;20197;-34
2022/07/08 08:14:10;;;;;;;4.10;1.80;;;18.90;99.90;;;;;;5036394;28;20627;-35
2022/07/08 08:16:36;;;;;;;5.70;1.70;;;19.00;99.90;;;;;;5053309;28;20192;-35
2022/07/08 08:19:01;;;;;;;4.53;1.70;;;19.00;99.90;;;;;;5053962;28;20177;-35
2022/07/08 08:21:29;;;;;;;5.97;1.70;;;18.80;99.90;;;;;;5041420;28;20232;-35
2022/07/08 08:23:56;;;;;;;7.68;1.80;;;18.90;99.90;;;;;;5071472;28;20173;-35
2022/07/08 08:26:22;;;;;;;6.22;1.80;;;18.90;99.90;;;;;;5053291;28;20201;-34
2022/07/08 08:28:49;;;;;;;5.25;2.30;;;18.80;99.90;;;;;;5033372;28;20193;-35
2022/07/08 08:31:17;;;;;;;3.50;1.70;;;18.80;99.90;;;;;;5017322;28;20178;-36
2022/07/08 08:33:48;;;;;;;5.05;1.83;;;18.80;99.90;;;;;;5047813;28;20166;-36
2022/07/08 08:36:14;;;;;;;8.35;2.40;;;18.70;99.90;;;;;;5054306;28;20367;-35
2022/07/08 08:38:40;;;;;;;5.45;1.60;;;19.10;99.90;;;;;;5033516;28;20201;-34
2022/07/08 08:41:06;;;;;;;4.35;1.63;;;19.20;99.90;;;;;;5035225;28;20185;-35
2022/07/08 08:43:33;;;;;;;6.05;2.00;;;19.50;99.90;;;;;;5053349;28;20181;-35
2022/07/08 08:45:59;;;;;;;6.85;2.45;;;19.90;99.90;;;;;;5071470;28;20230;-35
2022/07/08 08:48:26;;;;;;;7.13;1.85;;;20.20;99.90;;;;;;5036989;28;20184;-35
2022/07/08 08:50:55;;;;;;;4.75;1.60;;;20.30;99.90;;;;;;5053289;28;20178;-35
2022/07/08 08:53:27;;;;;;;5.07;1.98;;;20.20;99.90;;;;;;5053321;28;20258;-38
2022/07/08 08:55:55;;;;;;;4.25;1.52;;;20.30;99.90;;;;;;5036020;28;20181;-38
2022/07/08 08:58:23;;;;;;;4.03;1.67;;;20.50;99.90;;;;;;5053052;28;20188;-37
2022/07/08 09:00:49;;;;;;;5.82;1.67;;;20.40;99.90;;;;;;5053170;28;20185;-37
2022/07/08 09:03:17;;;;;;;5.35;1.88;;;20.60;99.90;;;;;;5036643;28;20265;-35
2022/07/08 09:05:48;;;;;;;5.30;1.95;;;20.70;99.90;;;;;;5036186;28;20181;-35
2022/07/08 09:08:20;;;;;;;4.82;2.08;;;20.70;99.90;;;;;;5070368;28;20311;-39
2022/07/08 09:10:46;;;;;;;5.35;1.77;;;20.30;99.90;;;;;;5053239;28;20186;-36
2022/07/08 09:13:18;;;;;;;4.38;1.90;;;20.30;99.90;;;;;;5052805;28;20189;-36
2022/07/08 09:15:46;;;;;;;5.28;1.95;;;20.50;99.90;;;;;;5052494;28;20177;-37
2022/07/08 09:18:15;;;;;;;4.03;2.10;;;20.60;99.90;;;;;;5051882;28;20169;-35
2022/07/08 09:20:50;;;;;;;4.03;1.80;;;20.90;99.90;;;;;;5052307;28;20169;-35
2022/07/08 09:23:22;;;;;;;4.60;1.90;;;20.50;99.90;;;;;;5052998;28;20201;-36
2022/07/08 09:25:50;;;;;;;7.75;2.28;;;20.40;99.90;;;;;;5069845;28;20161;-35
2022/07/08 09:28:37;;;;;;;5.68;1.90;;;20.50;99.90;;;;;;5035578;28;20268;-35
2022/07/08 09:31:05;;;;;;;4.07;1.65;;;20.40;99.90;;;;;;5022955;28;20170;-35
2022/07/08 09:33:32;;;;;;;5.15;1.58;;;20.60;99.90;;;;;;5034632;28;20231;-35
2022/07/08 09:36:01;;;;;;;4.68;1.42;;;20.80;99.90;;;;;;5032287;28;20271;-35
2022/07/08 09:38:37;;;;;;;5.30;1.90;;;20.90;99.90;;;;;;5035806;28;20234;-35
2022/07/08 09:41:12;;;;;;;3.45;1.45;;;21.30;99.90;;;;;;5069790;28;20618;-36
2022/07/08 09:43:48;;;;;;;5.45;1.65;;;21.60;99.90;;;;;;5034823;28;20196;-35
2022/07/08 09:46:13;;;;;;;3.97;1.77;;;21.80;99.90;;;;;;5052662;28;20215;-36
2022/07/08 09:48:39;;;;;;;4.25;1.70;;;22.10;99.90;;;;;;5035412;28;20178;-35
2022/07/08 09:51:10;;;;;;;5.85;1.63;;;22.40;99.90;;;;;;5040944;28;20182;-37
2022/07/08 09:53:40;;;;;;;4.32;1.45;;;22.40;99.90;;;;;;5033157;28;20189;-35
2022/07/08 09:56:07;;;;;;;3.67;1.67;;;22.60;99.90;;;;;;5035289;28;20181;-36
2022/07/08 09:58:35;;;;;;;4.53;1.70;;;22.70;99.90;;;;;;5051678;28;20268;-37
2022/07/08 10:01:02;;;;;;;6.05;1.33;;;22.60;99.90;;;;;;5035968;28;20331;-36
2022/07/08 10:03:29;;;;;;;4.55;1.55;;;22.70;99.80;;;;;;5035671;28;20196;-35
2022/07/08 10:05:55;;;;;;;6.53;2.00;;;23.00;99.90;;;;;;5051664;28;20299;-38
2022/07/08 10:08:23;;;;;;;5.28;1.58;;;23.10;99.50;;;;;;5036629;28;20180;-38
2022/07/08 10:10:49;;;;;;;4.82;1.38;;;23.40;99.10;;;;;;5052196;28;20178;-38
2022/07/08 10:13:18;;;;;;;4.65;1.70;;;23.50;99.80;;;;;;5052435;28;20225;-38
2022/07/08 10:15:45;;;;;;;3.00;1.50;;;23.60;98.80;;;;;;5035525;28;20178;-37
2022/07/08 10:18:20;;;;;;;2.67;1.30;;;23.80;97.90;;;;;;5052043;28;20177;-37
2022/07/08 10:20:50;;;;;;;4.13;1.50;;;23.60;99.40;;;;;;5050277;28;20205;-38
2022/07/08 10:23:34;;;;;;;4.40;1.40;;;23.90;99.20;;;;;;5036936;28;20204;-38
2022/07/08 10:26:02;;;;;;;4.35;1.55;;;23.90;97.80;;;;;;5052923;28;20232;-39
2022/07/08 10:28:39;;;;;;;2.95;1.33;;;24.00;98.10;;;;;;5035575;28;20177;-37
2022/07/08 10:31:19;;;;;;;2.92;1.48;;;23.80;98.50;;;;;;5071586;28;20251;-41
2022/07/08 10:33:45;;;;;;;7.20;1.70;;;23.70;97.20;;;;;;5037279;28;20177;-37
2022/07/08 10:36:12;;;;;;;3.03;1.60;;;23.60;98.50;;;;;;5035009;28;20197;-38
2022/07/08 10:38:40;;;;;;;5.32;1.48;;;23.50;98.70;;;;;;5068720;28;20177;-38
2022/07/08 10:41:17;;;;;;;4.30;1.33;;;23.70;98.80;;;;;;5034414;28;20190;-37
2022/07/08 10:43:54;;;;;;;4.53;1.52;;;23.50;96.80;;;;;;5065109;28;20216;-37
2022/07/08 10:46:24;;;;;;;4.22;1.30;;;23.60;98.30;;;;;;5054400;28;20212;-40
2022/07/08 10:48:59;;;;;;;4.63;1.30;;;23.60;98.20;;;;;;5036729;28;20195;-38
2022/07/08 10:51:35;;;;;;;3.45;1.40;;;23.60;96.70;;;;;;5054951;28;20181;-37
2022/07/08 10:54:04;;;;;;;5.63;1.80;;;23.60;97.20;;;;;;5073085;28;20173;-38
2022/07/08 10:56:56;;;;;;;4.47;1.70;;;23.50;97.40;;;;;;5055194;28;20192;-39
2022/07/08 10:59:33;;;;;;;3.35;1.40;;;23.60;95.80;;;;;;5054281;28;20200;-39
2022/07/08 11:02:16;;;;;;;4.38;1.60;;;23.70;96.40;;;;;;5035837;28;20258;-38
2022/07/08 11:04:51;;;;;;;4.72;1.70;;;23.80;98.20;;;;;;5048643;28;20272;-38
2022/07/08 11:07:33;;;;;;;4.40;1.70;;;24.20;96.80;;;;;;5038456;28;20200;-38
2022/07/08 11:10:04;;;;;;;2.72;1.48;;;24.30;97.70;;;;;;5054139;28;20256;-38
2022/07/08 11:12:39;;;;;;;4.30;1.35;;;24.80;97.40;;;;;;5055147;28;20204;-39
2022/07/08 11:15:10;;;;;;;5.00;1.50;;;25.10;95.40;;;;;;5038522;28;20275;-40
2022/07/08 11:17:38;;;;;;;3.20;1.65;;;24.90;95.20;;;;;;5038026;28;20192;-38
2022/07/08 11:20:06;;;;;;;3.72;1.40;;;24.90;95.90;;;;;;5038767;28;20257;-38
2022/07/08 11:22:37;;;;;;;4.82;1.75;;;24.30;95.70;;;;;;5072938;28;20193;-38
2022/07/08 11:25:05;;;;;;;3.55;1.80;;;24.10;96.50;;;;;;5038028;28;20173;-37
2022/07/08 11:27:33;;;;;;;4.63;1.38;;;24.00;94.90;;;;;;5054671;28;20255;-38
2022/07/08 11:30:00;;;;;;;3.33;1.27;;;23.70;95.90;;;;;;5037580;28;20173;-39
2022/07/08 11:32:27;;;;;;;5.43;1.60;;;24.10;96.80;;;;;;5044273;28;20208;-37
2022/07/08 11:34:54;;;;;;;1.55;1.20;;;24.30;95.60;;;;;;5037574;28;20181;-40
2022/07/08 11:37:22;;;;;;;2.85;1.40;;;24.40;95.30;;;;;;5036505;28;20741;-38
2022/07/08 11:39:49;;;;;;;3.15;1.40;;;24.30;95.90;;;;;;5034876;28;20185;-38
2022/07/08 11:42:16;;;;;;;2.45;1.33;;;24.50;95.40;;;;;;5032709;28;20201;-38
2022/07/08 11:44:44;;;;;;;6.30;1.50;;;24.60;94.90;;;;;;5053432;28;20170;-39
2022/07/08 11:47:13;;;;;;;3.53;1.40;;;24.80;95.30;;;;;;5070068;28;20231;-38
2022/07/08 11:49:44;;;;;;;4.57;1.60;;;24.80;96.10;;;;;;5036986;28;20268;-38
2022/07/08 11:52:10;;;;;;;3.92;1.58;;;24.80;95.90;;;;;;5037475;28;20263;-36
2022/07/08 11:54:36;;;;;;;2.92;1.50;;;24.70;95.30;;;;;;5035942;28;20182;-36
2022/07/08 11:57:03;;;;;;;5.60;1.70;;;24.70;94.10;;;;;;5053936;28;20182;-36
2022/07/08 11:59:34;;;;;;;5.28;1.48;;;24.60;95.60;;;;;;5036702;28;20258;-38
2022/07/08 12:02:01;;;;;;;4.63;1.50;;;24.50;96.70;;;;;;5052857;28;20197;-36
2022/07/08 12:04:27;;;;;;;10.40;2.67;;;24.80;96.00;;;;;;5036955;28;20197;-36
2022/07/08 12:06:55;;;;;;;6.70;1.65;;;25.20;94.10;;;;;;5037839;28;20200;-36
2022/07/08 12:09:23;;;;;;;4.53;1.45;;;25.50;94.40;;;;;;5053791;28;20177;-35
2022/07/08 12:11:53;;;;;;;4.68;1.20;;;25.50;93.90;;;;;;5035734;28;20280;-36
2022/07/08 12:14:20;;;;;;;3.33;1.45;;;24.80;93.00;;;;;;5035440;28;20173;-35
2022/07/08 12:16:55;;;;;;;4.28;1.35;;;24.50;93.70;;;;;;5035179;28;20181;-35
2022/07/08 12:19:37;;;;;;;4.53;1.63;;;24.80;94.20;;;;;;5071431;28;20248;-36
2022/07/08 12:22:08;;;;;;;4.03;1.25;;;25.00;93.80;;;;;;5052758;28;20205;-35
2022/07/08 12:24:38;;;;;;;1.45;1.20;;;25.30;93.50;;;;;;5031668;28;20233;-37
2022/07/08 12:27:06;;;;;;;5.07;1.83;;;25.50;93.20;;;;;;5032139;28;20263;-35
2022/07/08 12:29:36;;;;;;;2.80;1.38;;;25.50;94.00;;;;;;5016661;28;20182;-35
2022/07/08 12:32:06;;;;;;;3.30;1.50;;;25.20;93.60;;;;;;5017294;28;20202;-35
2022/07/08 12:34:32;;;;;;;2.13;1.30;;;25.70;93.40;;;;;;5017064;28;20245;-35
2022/07/08 12:37:15;;;;;;;3.72;1.30;;;26.00;93.40;;;;;;5025840;28;20835;-35
2022/07/08 12:39:41;;;;;;;3.85;1.35;;;26.10;93.10;;;;;;5036795;28;20185;-35
2022/07/08 12:42:07;;;;;;;3.58;1.15;;;26.00;92.40;;;;;;5036434;28;20296;-35
2022/07/08 12:44:40;;;;;;;3.30;1.40;;;25.90;92.80;;;;;;5052811;28;20184;-36
2022/07/08 12:47:11;;;;;;;4.25;1.33;;;26.30;92.90;;;;;;5035386;28;20193;-38
2022/07/08 12:49:39;;;;;;;2.25;1.10;;;26.60;92.90;;;;;;5053899;28;20161;-35
2022/07/08 12:52:07;;;;;;;3.85;1.30;;;26.80;92.60;;;;;;5037498;28;20265;-35